Time;durP1;ratioP1;P1;durP2;ratioP2;P2;SDS_P1;SDS_P2;PMS_P1;PMS_P2;Temp;Humidity;BMP_temperature;BMP_pressure;BME280_temperature;BME280_humidity;BME280_pressure;Samples;Min_cycle;Max_cycle;Signal;HPM_P1;HPM_P2
2022/03/30 00:01:57;;;;;;;42.53;10.77;;;11.40;99.90;;;;;;5035874;28;20056;-83
2022/03/30 00:04:22;;;;;;;37.30;9.70;;;11.40;99.90;;;;;;5035816;28;20041;-84
2022/03/30 00:06:49;;;;;;;37.38;10.45;;;10.90;99.90;;;;;;5035688;28;20068;-82
2022/03/30 00:09:14;;;;;;;30.40;10.52;;;10.90;99.90;;;;;;5035572;28;20052;-83
2022/03/30 00:11:40;;;;;;;52.80;12.98;;;10.90;99.90;;;;;;5035570;28;20046;-82
2022/03/30 00:14:06;;;;;;;38.75;12.02;;;10.80;99.90;;;;;;5035448;28;20084;-82
2022/03/30 00:16:34;;;;;;;38.00;11.15;;;10.80;99.90;;;;;;5035743;28;20378;-82
2022/03/30 00:19:00;;;;;;;32.55;10.25;;;10.90;99.90;;;;;;5017900;28;20041;-70
2022/03/30 00:21:26;;;;;;;34.80;9.23;;;10.80;99.90;;;;;;5035680;28;20123;-82
2022/03/30 00:23:52;;;;;;;29.25;9.63;;;10.80;99.90;;;;;;5035704;28;20128;-83
2022/03/30 00:26:19;;;;;;;31.33;9.25;;;10.70;99.90;;;;;;5035572;28;20030;-83
2022/03/30 00:28:44;;;;;;;27.77;9.25;;;10.60;99.90;;;;;;5035446;28;20045;-71
2022/03/30 00:31:12;;;;;;;29.63;8.05;;;10.60;99.90;;;;;;5035514;28;20053;-83
2022/03/30 00:33:38;;;;;;;31.13;9.43;;;10.60;99.90;;;;;;5035664;28;20036;-84
2022/03/30 00:36:04;;;;;;;39.47;8.75;;;10.60;99.90;;;;;;5035174;28;20413;-84
2022/03/30 00:38:30;;;;;;;28.98;7.85;;;10.60;99.90;;;;;;5035150;28;20524;-80
2022/03/30 00:40:56;;;;;;;44.40;9.73;;;10.70;99.90;;;;;;5035271;28;20132;-71
2022/03/30 00:43:21;;;;;;;28.63;7.75;;;10.60;99.90;;;;;;5035218;28;20579;-85
2022/03/30 00:45:47;;;;;;;34.05;8.43;;;10.80;99.90;;;;;;5035159;28;20045;-85
2022/03/30 00:48:13;;;;;;;32.25;9.32;;;10.70;99.90;;;;;;5035864;28;20505;-84
2022/03/30 00:50:39;;;;;;;32.75;10.32;;;10.90;99.90;;;;;;5042907;28;20097;-84
2022/03/30 00:53:05;;;;;;;29.63;8.00;;;10.80;99.90;;;;;;5055302;28;20106;-84
2022/03/30 00:55:31;;;;;;;39.45;8.95;;;11.00;99.90;;;;;;5054939;28;20504;-84
2022/03/30 00:57:58;;;;;;;35.92;9.60;;;10.80;99.90;;;;;;5054890;28;20401;-84
2022/03/30 01:00:25;;;;;;;31.88;8.75;;;10.80;99.90;;;;;;5054922;28;20405;-85
2022/03/30 01:02:52;;;;;;;32.15;9.10;;;10.70;99.90;;;;;;5054458;28;20037;-84
2022/03/30 01:05:18;;;;;;;29.85;8.65;;;10.70;99.90;;;;;;5054425;28;20506;-85
2022/03/30 01:07:45;;;;;;;41.10;11.10;;;10.40;99.90;;;;;;5054090;28;20033;-85
2022/03/30 01:10:13;;;;;;;31.15;9.68;;;10.30;99.90;;;;;;5054435;28;20079;-73
2022/03/30 01:12:39;;;;;;;31.42;9.13;;;10.20;99.90;;;;;;5054768;28;20037;-85
2022/03/30 01:15:11;;;;;;;35.22;9.13;;;10.10;99.90;;;;;;5054668;28;20048;-85
2022/03/30 01:17:37;;;;;;;26.77;9.63;;;10.10;99.90;;;;;;5054290;28;20029;-84
2022/03/30 01:20:07;;;;;;;31.70;8.75;;;10.20;99.90;;;;;;5054499;28;20029;-84
2022/03/30 01:22:33;;;;;;;39.33;10.50;;;10.20;99.90;;;;;;5054563;28;20049;-85
2022/03/30 01:25:00;;;;;;;37.60;9.85;;;10.20;99.90;;;;;;5054504;28;20091;-85
2022/03/30 01:27:25;;;;;;;28.33;8.68;;;10.30;99.90;;;;;;5054143;28;20033;-85
2022/03/30 01:32:37;;;;;;;30.77;9.20;;;10.40;99.90;;;;;;5053991;28;20071;-85
2022/03/30 01:35:04;;;;;;;28.25;8.45;;;10.40;99.90;;;;;;5053789;28;20045;-84
2022/03/30 01:37:31;;;;;;;28.23;8.40;;;10.40;99.90;;;;;;5053971;28;20033;-77
2022/03/30 01:39:59;;;;;;;39.20;10.25;;;10.30;99.90;;;;;;5053789;28;20079;-70
2022/03/30 01:42:26;;;;;;;25.73;9.05;;;10.20;99.90;;;;;;5053643;28;20045;-84
2022/03/30 01:44:52;;;;;;;31.50;8.45;;;10.20;99.90;;;;;;5053761;28;20124;-84
2022/03/30 01:47:18;;;;;;;37.90;8.02;;;10.20;99.90;;;;;;5042343;28;20120;-81
2022/03/30 01:49:45;;;;;;;32.88;8.32;;;10.20;99.90;;;;;;5033854;28;20053;-83
2022/03/30 01:52:12;;;;;;;34.13;8.70;;;10.20;99.90;;;;;;5033667;28;20122;-83
2022/03/30 01:54:40;;;;;;;35.75;9.95;;;10.20;99.90;;;;;;5033717;28;20057;-84
2022/03/30 01:57:07;;;;;;;28.27;8.15;;;10.30;99.90;;;;;;5033778;28;20045;-83
2022/03/30 01:59:33;;;;;;;26.25;8.70;;;10.30;99.90;;;;;;5034173;28;20041;-83
2022/03/30 02:02:01;;;;;;;37.65;9.82;;;10.40;99.90;;;;;;5034070;28;20052;-84
2022/03/30 02:04:26;;;;;;;26.55;7.82;;;10.40;99.90;;;;;;5033798;28;20430;-81
2022/03/30 02:06:52;;;;;;;39.60;9.07;;;10.50;99.90;;;;;;5033828;28;20076;-81
2022/03/30 02:09:18;;;;;;;30.48;8.50;;;10.50;99.90;;;;;;5033658;28;20452;-79
2022/03/30 02:11:44;;;;;;;31.40;8.65;;;10.50;99.90;;;;;;5033215;28;20112;-80
2022/03/30 02:14:10;;;;;;;30.08;9.00;;;10.50;99.90;;;;;;5033264;28;20124;-81
2022/03/30 02:16:36;;;;;;;28.00;8.93;;;10.40;99.90;;;;;;5033421;28;20103;-84
2022/03/30 02:19:02;;;;;;;34.40;9.05;;;10.20;99.90;;;;;;5032486;28;20448;-83
2022/03/30 02:21:28;;;;;;;29.08;9.25;;;10.10;99.90;;;;;;5033415;28;20505;-82
2022/03/30 02:23:55;;;;;;;28.83;7.93;;;;;;;;;;5033397;28;20033;-80
2022/03/30 02:26:21;;;;;;;29.48;9.20;;;10.10;99.90;;;;;;5033349;28;20046;-80
2022/03/30 02:28:54;;;;;;;24.83;8.43;;;10.00;99.90;;;;;;5033228;28;20045;-82
2022/03/30 02:31:23;;;;;;;33.63;9.43;;;9.90;99.90;;;;;;5033314;28;20517;-81
2022/03/30 02:33:49;;;;;;;31.98;9.57;;;9.90;99.90;;;;;;5033328;28;20531;-80
2022/03/30 02:36:16;;;;;;;28.85;8.50;;;9.80;99.90;;;;;;5032810;28;20048;-81
2022/03/30 02:38:43;;;;;;;28.92;9.02;;;9.90;99.90;;;;;;5032334;28;20041;-81
2022/03/30 02:41:09;;;;;;;32.17;8.43;;;9.90;99.90;;;;;;5014811;28;20049;-72
2022/03/30 02:43:37;;;;;;;22.95;7.32;;;9.90;99.90;;;;;;5032254;28;20084;-81
2022/03/30 02:46:04;;;;;;;35.47;8.95;;;9.90;99.90;;;;;;5032865;28;20042;-82
2022/03/30 02:48:32;;;;;;;35.70;9.38;;;9.90;99.90;;;;;;5032692;28;20053;-82
2022/03/30 02:51:04;;;;;;;30.88;8.35;;;9.80;99.90;;;;;;5033041;28;20041;-82
2022/03/30 02:53:30;;;;;;;28.67;8.27;;;10.00;99.90;;;;;;5033248;28;20762;-80
2022/03/30 02:55:56;;;;;;;26.25;9.13;;;10.00;99.90;;;;;;5032792;28;20125;-82
2022/03/30 02:58:23;;;;;;;31.15;8.63;;;9.90;99.90;;;;;;5032655;28;20053;-82
2022/03/30 03:00:49;;;;;;;27.25;9.15;;;9.90;99.90;;;;;;5032815;28;20045;-81
2022/03/30 03:03:15;;;;;;;39.83;8.35;;;9.90;99.90;;;;;;5032803;28;20486;-82
2022/03/30 03:05:42;;;;;;;32.58;7.78;;;9.90;99.90;;;;;;5032805;28;20037;-74
2022/03/30 03:08:10;;;;;;;32.33;8.95;;;9.90;99.90;;;;;;5033005;28;20041;-83
2022/03/30 03:10:37;;;;;;;30.25;9.65;;;9.90;99.90;;;;;;5032843;28;20046;-83
2022/03/30 03:13:04;;;;;;;30.70;9.25;;;10.00;99.90;;;;;;5032944;28;20532;-83
2022/03/30 03:15:31;;;;;;;27.38;8.60;;;10.00;99.90;;;;;;5032661;28;20056;-74
2022/03/30 03:17:57;;;;;;;27.83;8.88;;;9.90;99.90;;;;;;5032352;28;20040;-82
2022/03/30 03:20:24;;;;;;;30.00;8.85;;;10.00;99.90;;;;;;5032483;28;20068;-84
2022/03/30 03:22:50;;;;;;;30.30;9.57;;;10.00;99.90;;;;;;5033106;28;20448;-78
2022/03/30 03:25:15;;;;;;;26.70;8.43;;;10.00;99.90;;;;;;5033002;28;20046;-82
2022/03/30 03:27:41;;;;;;;22.60;7.68;;;10.20;99.90;;;;;;5032596;28;20033;-81
2022/03/30 03:30:08;;;;;;;33.63;10.00;;;10.30;99.90;;;;;;5033956;28;20053;-80
2022/03/30 03:32:34;;;;;;;34.75;9.50;;;10.50;99.90;;;;;;5036644;28;20043;-81
2022/03/30 03:34:59;;;;;;;36.47;9.88;;;10.60;99.90;;;;;;5036501;28;20145;-81
2022/03/30 03:37:25;;;;;;;41.92;9.13;;;10.70;99.90;;;;;;5036050;28;20045;-71
2022/03/30 03:39:51;;;;;;;32.90;9.82;;;10.70;99.90;;;;;;5036554;28;20107;-81
2022/03/30 03:42:17;;;;;;;38.80;10.85;;;10.80;99.90;;;;;;5036575;28;20046;-80
2022/03/30 03:44:44;;;;;;;34.63;8.85;;;10.80;99.90;;;;;;5036642;28;20120;-81
2022/03/30 03:47:10;;;;;;;31.40;9.25;;;10.70;99.90;;;;;;5036284;28;20726;-71
2022/03/30 03:49:37;;;;;;;37.70;10.10;;;10.60;99.90;;;;;;5050352;28;20056;-71
2022/03/30 03:52:04;;;;;;;28.88;8.90;;;10.60;99.90;;;;;;5050997;28;20042;-76
2022/03/30 03:54:30;;;;;;;28.25;8.80;;;10.60;99.90;;;;;;5033438;28;20055;-83
2022/03/30 03:56:56;;;;;;;33.90;9.70;;;10.70;99.90;;;;;;5034428;28;20476;-81
2022/03/30 03:59:21;;;;;;;30.10;9.57;;;10.40;99.90;;;;;;5035772;28;20181;-81
2022/03/30 04:01:47;;;;;;;38.13;9.60;;;10.20;99.90;;;;;;5049416;28;20075;-83
2022/03/30 04:04:13;;;;;;;39.53;10.85;;;10.10;99.90;;;;;;5055932;28;20076;-84
2022/03/30 04:06:39;;;;;;;45.10;10.77;;;10.20;99.90;;;;;;5055617;28;20477;-84
2022/03/30 04:09:05;;;;;;;32.70;10.20;;;10.40;99.90;;;;;;5037686;28;20056;-84
2022/03/30 04:11:31;;;;;;;23.27;9.70;;;10.60;99.90;;;;;;5055822;28;20033;-83
2022/03/30 04:13:57;;;;;;;30.67;9.13;;;10.40;99.90;;;;;;5055704;28;20557;-74
2022/03/30 04:16:22;;;;;;;29.10;9.05;;;10.30;99.90;;;;;;5055789;28;20048;-84
2022/03/30 04:18:48;;;;;;;34.67;9.63;;;10.20;99.90;;;;;;5055537;28;20072;-83
2022/03/30 04:21:14;;;;;;;31.92;8.32;;;10.10;99.90;;;;;;5055404;28;20037;-81
2022/03/30 04:23:40;;;;;;;27.00;9.40;;;10.10;99.90;;;;;;5055061;28;20404;-69
2022/03/30 04:26:06;;;;;;;39.10;8.57;;;10.20;99.90;;;;;;5055158;28;20040;-84
2022/03/30 04:28:32;;;;;;;30.95;8.73;;;10.10;99.90;;;;;;5055244;28;20073;-83
2022/03/30 04:30:58;;;;;;;24.08;8.07;;;10.00;99.90;;;;;;5055253;28;20114;-80
2022/03/30 04:33:23;;;;;;;42.22;10.50;;;10.00;99.90;;;;;;5055079;28;20065;-84
2022/03/30 04:35:49;;;;;;;34.80;9.00;;;9.90;99.90;;;;;;5055285;28;20126;-83
2022/03/30 04:38:15;;;;;;;30.55;10.10;;;9.80;99.90;;;;;;5055330;28;20464;-82
2022/03/30 04:40:41;;;;;;;34.00;10.77;;;9.70;99.90;;;;;;5055009;28;20435;-83
2022/03/30 04:43:07;;;;;;;30.85;10.20;;;9.80;99.90;;;;;;5053931;28;20139;-83
2022/03/30 04:45:33;;;;;;;33.20;10.65;;;9.70;99.90;;;;;;5054930;28;20044;-81
2022/03/30 04:48:00;;;;;;;32.25;9.30;;;9.70;99.90;;;;;;5054899;28;20045;-80
2022/03/30 04:50:26;;;;;;;26.17;8.52;;;9.80;99.90;;;;;;5055303;28;20382;-82
2022/03/30 04:52:52;;;;;;;32.38;9.10;;;9.90;99.90;;;;;;5054671;28;20412;-81
2022/03/30 04:55:19;;;;;;;39.53;9.63;;;10.00;99.90;;;;;;5054685;28;20516;-79
2022/03/30 04:57:45;;;;;;;36.25;9.68;;;10.10;99.90;;;;;;5054864;28;20045;-82
2022/03/30 05:00:12;;;;;;;27.52;10.25;;;10.20;99.90;;;;;;5054796;28;20514;-83
2022/03/30 05:02:39;;;;;;;31.52;9.60;;;10.30;99.90;;;;;;5054895;28;20044;-85
2022/03/30 05:05:08;;;;;;;31.08;9.38;;;10.30;99.90;;;;;;5054770;28;20052;-84
2022/03/30 05:07:34;;;;;;;27.33;9.60;;;10.10;99.90;;;;;;5041064;28;20033;-81
2022/03/30 05:10:00;;;;;;;36.90;9.68;;;10.00;99.90;;;;;;5034596;28;20065;-83
2022/03/30 05:12:26;;;;;;;37.78;9.88;;;10.00;99.90;;;;;;5034645;28;20112;-84
2022/03/30 05:14:52;;;;;;;22.27;8.80;;;10.20;99.90;;;;;;5034525;28;20124;-84
2022/03/30 05:17:18;;;;;;;31.25;10.75;;;10.20;99.90;;;;;;5034648;28;20040;-84
2022/03/30 05:19:44;;;;;;;32.88;10.30;;;10.30;99.90;;;;;;5034594;28;20045;-81
2022/03/30 05:22:10;;;;;;;23.35;9.00;;;10.40;99.90;;;;;;5040431;28;20040;-75
2022/03/30 05:24:37;;;;;;;35.45;9.95;;;10.40;99.90;;;;;;5054583;28;20040;-82
2022/03/30 05:27:03;;;;;;;36.30;10.05;;;10.30;99.90;;;;;;5037841;28;20035;-79
2022/03/30 05:29:30;;;;;;;31.42;10.73;;;10.20;99.90;;;;;;5033950;28;20049;-76
2022/03/30 05:31:56;;;;;;;31.92;11.80;;;10.10;99.90;;;;;;5033758;28;20401;-67
2022/03/30 05:34:22;;;;;;;26.23;10.85;;;10.10;99.90;;;;;;5033872;28;20108;-82
2022/03/30 05:36:48;;;;;;;35.83;11.80;;;10.00;99.90;;;;;;5033400;28;20041;-74
2022/03/30 05:39:14;;;;;;;37.50;11.10;;;9.90;99.90;;;;;;5033718;28;20041;-78
2022/03/30 05:41:40;;;;;;;34.20;11.73;;;9.80;99.90;;;;;;5033887;28;20446;-72
2022/03/30 05:44:06;;;;;;;30.02;12.95;;;9.80;99.90;;;;;;5036092;28;20148;-77
2022/03/30 05:46:32;;;;;;;34.42;11.40;;;9.80;99.90;;;;;;5053972;28;20041;-77
2022/03/30 05:48:57;;;;;;;37.45;13.43;;;9.70;99.90;;;;;;5053714;28;20489;-79
2022/03/30 05:51:24;;;;;;;29.98;11.77;;;9.70;99.90;;;;;;5053833;28;20462;-75
2022/03/30 05:53:50;;;;;;;35.85;12.68;;;9.90;99.90;;;;;;5048651;28;20042;-70
2022/03/30 05:56:16;;;;;;;38.13;14.20;;;9.70;99.90;;;;;;5033762;28;20098;-81
2022/03/30 05:58:41;;;;;;;27.80;12.48;;;9.60;99.90;;;;;;5033424;28;20041;-77
2022/03/30 06:01:08;;;;;;;36.97;13.23;;;9.60;99.90;;;;;;5033858;28;20041;-78
2022/03/30 06:03:37;;;;;;;39.60;13.20;;;9.60;99.90;;;;;;5033438;28;20542;-77
2022/03/30 06:06:07;;;;;;;34.38;13.80;;;9.60;99.90;;;;;;5037706;28;20444;-66
2022/03/30 06:08:34;;;;;;;30.92;12.65;;;9.50;99.90;;;;;;5037997;28;21437;-78
2022/03/30 06:11:00;;;;;;;26.33;11.38;;;9.60;99.90;;;;;;5033751;28;20114;-75
2022/03/30 06:13:26;;;;;;;40.80;12.65;;;9.70;99.90;;;;;;5033194;28;20042;-77
2022/03/30 06:15:52;;;;;;;36.28;13.00;;;9.60;99.90;;;;;;5033318;28;20041;-79
2022/03/30 06:18:18;;;;;;;32.53;11.77;;;9.60;99.90;;;;;;5031758;28;20037;-80
2022/03/30 06:20:44;;;;;;;33.70;11.20;;;9.70;99.90;;;;;;5032521;28;20045;-79
2022/03/30 06:23:11;;;;;;;30.98;13.65;;;9.70;99.90;;;;;;5033365;28;20044;-80
2022/03/30 06:25:37;;;;;;;36.65;13.93;;;9.60;99.90;;;;;;5031865;28;20561;-78
2022/03/30 06:28:03;;;;;;;34.95;13.13;;;9.40;99.90;;;;;;5032182;28;20083;-77
2022/03/30 06:30:30;;;;;;;35.28;12.25;;;9.30;99.90;;;;;;5033096;28;20060;-78
2022/03/30 06:32:56;;;;;;;38.58;12.85;;;9.30;99.90;;;;;;5033315;28;20141;-78
2022/03/30 06:35:23;;;;;;;34.45;11.10;;;9.30;99.90;;;;;;5033537;28;20449;-78
2022/03/30 06:37:48;;;;;;;29.38;10.43;;;9.30;99.90;;;;;;5033320;28;20509;-78
2022/03/30 06:40:15;;;;;;;30.38;10.15;;;9.40;99.90;;;;;;5033630;28;20034;-79
2022/03/30 06:42:41;;;;;;;28.45;10.73;;;9.50;99.90;;;;;;5033068;28;20102;-80
2022/03/30 06:45:09;;;;;;;30.67;9.90;;;9.50;99.90;;;;;;5032985;28;20114;-80
2022/03/30 06:47:35;;;;;;;27.98;8.48;;;9.50;99.90;;;;;;5033348;28;20045;-78
2022/03/30 06:50:02;;;;;;;31.73;10.65;;;9.60;99.90;;;;;;5040363;28;20522;-81
2022/03/30 06:52:28;;;;;;;27.23;10.43;;;9.70;99.90;;;;;;5033432;28;20512;-77
2022/03/30 06:54:54;;;;;;;34.92;9.27;;;9.90;99.90;;;;;;5032932;28;20128;-79
2022/03/30 06:57:20;;;;;;;33.20;11.85;;;10.10;99.90;;;;;;5032888;28;20172;-78
2022/03/30 06:59:46;;;;;;;25.52;11.52;;;10.10;99.90;;;;;;5033215;28;20038;-76
2022/03/30 07:02:12;;;;;;;33.28;11.52;;;9.90;99.90;;;;;;5032766;28;20052;-77
2022/03/30 07:04:38;;;;;;;26.98;11.27;;;9.90;99.90;;;;;;5034634;28;20103;-76
2022/03/30 07:12:34;;;;;;;33.90;11.23;;;9.80;99.90;;;;;;5041978;28;20539;-77
2022/03/30 07:15:00;;;;;;;34.03;11.32;;;9.90;99.90;;;;;;5059003;28;20086;-76
2022/03/30 07:17:27;;;;;;;30.30;11.05;;;9.90;99.90;;;;;;5059196;28;20167;-67
2022/03/30 07:19:53;;;;;;;26.58;10.68;;;9.90;99.90;;;;;;5059239;28;20500;-74
2022/03/30 07:22:19;;;;;;;28.00;9.80;;;9.90;99.90;;;;;;5059293;28;20045;-75
2022/03/30 07:24:45;;;;;;;26.98;10.25;;;10.00;99.90;;;;;;5059305;28;20040;-76
2022/03/30 07:27:11;;;;;;;26.92;9.75;;;10.00;99.90;;;;;;5059346;28;20094;-77
2022/03/30 07:29:37;;;;;;;31.92;10.60;;;10.00;99.90;;;;;;5059263;28;20041;-83
2022/03/30 07:32:03;;;;;;;31.67;11.13;;;10.00;99.90;;;;;;5059379;28;20036;-84
2022/03/30 07:34:29;;;;;;;30.75;10.95;;;10.00;99.90;;;;;;5059258;28;20052;-81
2022/03/30 07:36:56;;;;;;;22.42;9.63;;;10.00;99.90;;;;;;5059195;28;20493;-83
2022/03/30 07:39:22;;;;;;;27.33;10.60;;;10.10;99.90;;;;;;5041230;28;20033;-84
2022/03/30 07:41:48;;;;;;;37.72;11.60;;;10.20;99.90;;;;;;5059139;28;20519;-84
2022/03/30 07:44:13;;;;;;;22.48;9.50;;;10.10;99.90;;;;;;5057572;28;20110;-83
2022/03/30 07:46:40;;;;;;;27.83;10.70;;;10.10;99.90;;;;;;5041694;28;20055;-79
2022/03/30 07:49:06;;;;;;;24.88;10.93;;;10.10;99.90;;;;;;5038993;28;20038;-70
2022/03/30 07:51:32;;;;;;;24.38;12.90;;;10.20;99.90;;;;;;5039527;28;20053;-68
2022/03/30 07:53:57;;;;;;;44.95;17.70;;;10.30;99.90;;;;;;5039165;28;20068;-83
2022/03/30 07:56:23;;;;;;;41.08;12.52;;;10.40;99.90;;;;;;5035886;28;20049;-82
2022/03/30 07:58:49;;;;;;;34.47;11.85;;;10.20;99.90;;;;;;5036468;28;20037;-80
2022/03/30 08:01:20;;;;;;;29.45;10.20;;;10.30;99.90;;;;;;5037920;28;20144;-82
2022/03/30 08:03:45;;;;;;;38.70;18.85;;;10.30;99.90;;;;;;5038603;28;20038;-75
2022/03/30 08:06:12;;;;;;;30.23;12.20;;;10.30;99.90;;;;;;5039173;28;20132;-82
2022/03/30 08:08:39;;;;;;;35.88;14.73;;;10.50;99.90;;;;;;5038935;28;20107;-79
2022/03/30 08:11:05;;;;;;;39.00;13.18;;;10.60;99.90;;;;;;5038978;28;20040;-76
2022/03/30 08:13:31;;;;;;;35.63;12.52;;;10.60;99.90;;;;;;5038683;28;20045;-82
2022/03/30 08:15:57;;;;;;;36.05;12.82;;;10.50;99.90;;;;;;5037232;28;20056;-80
2022/03/30 08:18:23;;;;;;;48.08;13.93;;;10.60;99.90;;;;;;5035207;28;20116;-83
2022/03/30 08:23:35;;;;;;;34.45;13.77;;;10.90;99.90;;;;;;5035490;28;20083;-82
2022/03/30 08:26:02;;;;;;;35.10;13.40;;;10.90;99.90;;;;;;5035858;28;20095;-81
2022/03/30 08:28:28;;;;;;;34.17;11.70;;;10.90;99.90;;;;;;5035382;28;20371;-82
2022/03/30 08:30:54;;;;;;;35.83;10.63;;;11.00;99.90;;;;;;5035642;28;20044;-78
2022/03/30 08:33:23;;;;;;;36.33;11.82;;;11.10;99.90;;;;;;5035817;28;20041;-80
2022/03/30 08:35:50;;;;;;;38.65;10.25;;;11.00;99.90;;;;;;5035553;28;20041;-80
2022/03/30 08:38:16;;;;;;;39.58;11.13;;;11.30;99.90;;;;;;5032096;28;20037;-73
2022/03/30 08:40:42;;;;;;;30.17;9.82;;;11.50;99.90;;;;;;5032691;28;20056;-80
2022/03/30 08:43:08;;;;;;;32.58;10.20;;;11.70;99.90;;;;;;5032494;28;20029;-79
2022/03/30 08:45:34;;;;;;;28.90;9.93;;;11.50;99.90;;;;;;5032616;28;20412;-79
2022/03/30 08:48:01;;;;;;;37.47;9.98;;;11.30;99.90;;;;;;5032535;28;20330;-80
2022/03/30 08:50:26;;;;;;;36.58;9.95;;;11.30;99.90;;;;;;5033536;28;20056;-80
2022/03/30 08:52:55;;;;;;;30.67;9.93;;;11.30;99.90;;;;;;5031602;28;20037;-79
2022/03/30 08:55:22;;;;;;;27.05;9.77;;;11.40;99.90;;;;;;5015343;28;20050;-77
2022/03/30 08:57:48;;;;;;;34.55;10.77;;;11.50;99.90;;;;;;5014439;28;20049;-69
2022/03/30 09:00:21;;;;;;;35.58;9.77;;;11.50;99.90;;;;;;5014653;28;20038;-75
2022/03/30 09:02:58;;;;;;;20.90;8.52;;;11.70;99.90;;;;;;5015432;28;20045;-76
2022/03/30 09:05:26;;;;;;;28.42;9.30;;;11.80;99.90;;;;;;5015203;28;20237;-76
2022/03/30 09:07:57;;;;;;;32.88;9.75;;;11.90;99.90;;;;;;5015194;28;20033;-75
2022/03/30 09:10:28;;;;;;;34.88;10.50;;;12.10;99.90;;;;;;5014354;28;20057;-72
2022/03/30 09:12:56;;;;;;;28.92;9.30;;;12.10;99.90;;;;;;5014579;28;20052;-76
2022/03/30 09:15:23;;;;;;;24.95;9.65;;;12.30;99.90;;;;;;5014853;28;20121;-71
2022/03/30 09:17:49;;;;;;;32.88;10.27;;;12.60;99.90;;;;;;5014644;28;20049;-76
2022/03/30 09:20:17;;;;;;;33.00;9.27;;;12.60;99.90;;;;;;5013706;28;20072;-76
2022/03/30 09:22:49;;;;;;;29.55;8.90;;;12.30;99.90;;;;;;5014938;28;20042;-75
2022/03/30 09:25:16;;;;;;;28.27;9.60;;;11.90;99.90;;;;;;5014940;28;20037;-76
2022/03/30 09:27:43;;;;;;;47.10;14.20;;;12.40;99.90;;;;;;5014465;28;20073;-76
2022/03/30 09:30:12;;;;;;;33.20;10.10;;;12.40;99.90;;;;;;5014724;28;20077;-76
2022/03/30 09:32:41;;;;;;;34.50;10.35;;;12.20;99.90;;;;;;5014736;28;20117;-75
2022/03/30 09:35:17;;;;;;;31.25;9.82;;;;;;;;;;5014629;28;20034;-74
2022/03/30 09:37:43;;;;;;;30.75;9.30;;;12.60;99.90;;;;;;5022402;28;20055;-75
2022/03/30 09:40:10;;;;;;;36.75;10.63;;;12.70;99.90;;;;;;5026928;28;20045;-71
2022/03/30 09:42:36;;;;;;;21.80;8.82;;;12.90;99.90;;;;;;5014229;28;20506;-75
2022/03/30 09:45:02;;;;;;;31.55;9.45;;;12.90;99.90;;;;;;5014186;28;20052;-76
2022/03/30 09:47:37;;;;;;;47.80;11.68;;;13.10;99.90;;;;;;5014187;28;20049;-75
2022/03/30 09:50:07;;;;;;;29.08;10.00;;;13.10;99.90;;;;;;5031865;28;20148;-72
2022/03/30 09:52:37;;;;;;;27.10;9.70;;;13.30;99.90;;;;;;5033778;28;20421;-74
2022/03/30 09:55:05;;;;;;;26.00;9.73;;;13.30;99.90;;;;;;5033832;28;20528;-72
2022/03/30 09:57:41;;;;;;;26.92;10.07;;;13.30;99.90;;;;;;5034055;28;20087;-69
2022/03/30 10:00:18;;;;;;;33.72;8.75;;;13.60;99.90;;;;;;5034004;28;20076;-75
2022/03/30 10:02:46;;;;;;;22.73;8.13;;;13.40;99.90;;;;;;5033859;28;20052;-74
2022/03/30 10:05:14;;;;;;;28.55;9.18;;;13.40;99.90;;;;;;5033826;28;20394;-73
2022/03/30 10:07:40;;;;;;;24.60;9.80;;;14.00;99.90;;;;;;5033869;28;20041;-72
2022/03/30 10:10:09;;;;;;;27.30;9.43;;;14.00;99.90;;;;;;5033694;28;20053;-74
2022/03/30 10:12:35;;;;;;;29.17;8.60;;;14.20;99.90;;;;;;5033586;28;20073;-75
2022/03/30 10:15:01;;;;;;;24.13;8.35;;;13.90;99.90;;;;;;5036162;28;20041;-75
2022/03/30 10:17:30;;;;;;;38.45;8.90;;;14.40;99.90;;;;;;5053257;28;20045;-75
2022/03/30 10:20:01;;;;;;;22.15;8.60;;;14.70;99.90;;;;;;5053306;28;20045;-75
2022/03/30 10:23:01;;;;;;;32.42;8.85;;;14.40;99.90;;;;;;5053553;28;20045;-75
2022/03/30 10:26:04;;;;;;;24.75;8.55;;;13.90;99.90;;;;;;5053393;28;20041;-75
2022/03/30 10:28:40;;;;;;;28.40;9.82;;;13.70;99.90;;;;;;5035366;28;20080;-75
2022/03/30 10:31:08;;;;;;;31.40;9.35;;;13.80;99.90;;;;;;5035444;28;20052;-75
2022/03/30 10:33:41;;;;;;;29.85;8.65;;;14.20;99.90;;;;;;5053638;28;20124;-75
2022/03/30 10:36:29;;;;;;;24.55;8.43;;;14.20;99.90;;;;;;5052537;28;20040;-71
2022/03/30 10:39:23;;;;;;;27.65;9.27;;;14.00;99.90;;;;;;5050309;28;20052;-74
2022/03/30 10:42:11;;;;;;;24.58;8.40;;;14.20;99.90;;;;;;5051762;28;20076;-73
2022/03/30 10:44:55;;;;;;;36.88;11.13;;;13.90;99.90;;;;;;5035170;28;20045;-75
2022/03/30 10:47:26;;;;;;;28.48;8.20;;;14.00;99.90;;;;;;5052790;28;20086;-75
2022/03/30 10:50:00;;;;;;;29.33;8.77;;;14.00;99.90;;;;;;5052133;28;20527;-75
2022/03/30 10:52:35;;;;;;;31.90;9.05;;;13.90;99.90;;;;;;5052449;28;20147;-69
2022/03/30 10:55:13;;;;;;;27.73;9.43;;;13.90;99.90;;;;;;5050518;28;20072;-75
2022/03/30 10:57:48;;;;;;;25.17;8.23;;;13.90;99.90;;;;;;5031562;28;20094;-73
2022/03/30 11:00:38;;;;;;;28.83;8.68;;;13.80;99.90;;;;;;5033070;28;20037;-69
2022/03/30 11:03:17;;;;;;;30.15;8.15;;;13.70;99.90;;;;;;5032423;28;20128;-68
2022/03/30 11:06:00;;;;;;;22.83;8.38;;;13.60;99.90;;;;;;5032903;28;20579;-73
2022/03/30 11:08:31;;;;;;;30.40;9.60;;;13.50;99.90;;;;;;5032901;28;20401;-69
2022/03/30 11:11:01;;;;;;;34.38;8.77;;;13.50;99.90;;;;;;5032247;28;20056;-72
2022/03/30 11:13:27;;;;;;;41.45;10.32;;;13.40;99.90;;;;;;5032522;28;20037;-68
2022/03/30 11:16:03;;;;;;;31.30;9.23;;;13.30;99.90;;;;;;5032942;28;20124;-72
2022/03/30 11:18:30;;;;;;;34.67;8.98;;;12.80;99.90;;;;;;5032304;28;20580;-72
2022/03/30 11:21:15;;;;;;;32.38;8.93;;;;;;;;;;5032886;28;20460;-68
2022/03/30 11:24:08;;;;;;;29.70;8.90;;;11.90;99.90;;;;;;5032834;28;20049;-69
2022/03/30 11:27:06;;;;;;;26.35;9.23;;;11.70;99.90;;;;;;5032748;28;20413;-71
2022/03/30 11:29:52;;;;;;;31.13;9.20;;;12.00;99.90;;;;;;4999205;28;20045;-72
2022/03/30 11:32:24;;;;;;;28.50;9.57;;;12.10;99.90;;;;;;5032668;28;20640;-72
2022/03/30 11:34:53;;;;;;;28.27;9.90;;;12.10;99.90;;;;;;5032647;28;20045;-68
2022/03/30 11:37:19;;;;;;;22.77;8.55;;;12.00;99.90;;;;;;5032640;28;20095;-72
2022/03/30 11:39:49;;;;;;;34.83;10.02;;;11.80;99.90;;;;;;5032557;28;20049;-71
2022/03/30 11:42:19;;;;;;;28.25;9.43;;;11.80;99.90;;;;;;5032592;28;20041;-71
2022/03/30 11:47:34;;;;;;;22.83;10.25;;;12.00;99.90;;;;;;5032635;28;20539;-71
2022/03/30 11:50:00;;;;;;;26.48;10.27;;;12.00;99.90;;;;;;5050216;28;20055;-74
2022/03/30 11:52:26;;;;;;;29.88;11.25;;;12.00;99.90;;;;;;5055852;28;20163;-71
2022/03/30 11:54:54;;;;;;;29.25;10.15;;;12.10;99.90;;;;;;5056172;28;20067;-75
2022/03/30 11:57:22;;;;;;;25.38;9.90;;;12.20;99.90;;;;;;5055051;28;20593;-74
2022/03/30 12:00:00;;;;;;;29.35;10.80;;;12.00;99.90;;;;;;5039527;28;20047;-76
2022/03/30 12:02:29;;;;;;;29.92;10.60;;;12.00;99.90;;;;;;5033780;28;20045;-77
2022/03/30 12:04:57;;;;;;;25.50;10.10;;;12.40;99.90;;;;;;5036814;28;20037;-75
2022/03/30 12:07:23;;;;;;;28.00;9.82;;;12.50;99.90;;;;;;4998002;28;20466;-76
2022/03/30 12:09:55;;;;;;;28.08;9.65;;;12.70;99.90;;;;;;5015891;28;20049;-77
2022/03/30 12:12:35;;;;;;;34.50;11.50;;;12.70;99.90;;;;;;5015670;28;20469;-77
2022/03/30 12:15:08;;;;;;;34.00;11.05;;;12.60;99.90;;;;;;5015816;28;20046;-74
2022/03/30 12:17:35;;;;;;;31.92;10.18;;;12.80;99.90;;;;;;4998504;28;20072;-68
2022/03/30 12:20:10;;;;;;;33.55;10.48;;;13.10;99.90;;;;;;5015176;28;20037;-67
2022/03/30 12:22:39;;;;;;;26.30;10.73;;;13.10;99.90;;;;;;5015412;28;20041;-77
2022/03/30 12:25:28;;;;;;;35.42;10.85;;;12.80;99.90;;;;;;5015981;28;20149;-77
2022/03/30 12:27:55;;;;;;;38.47;11.75;;;12.70;99.90;;;;;;5033338;28;20144;-79
2022/03/30 12:30:24;;;;;;;26.95;11.02;;;12.60;99.90;;;;;;5017546;28;20531;-74
2022/03/30 12:32:53;;;;;;;26.58;9.88;;;12.50;99.90;;;;;;5035304;28;20041;-69
2022/03/30 12:35:35;;;;;;;29.73;9.30;;;12.50;99.90;;;;;;5035507;28;20531;-79
2022/03/30 12:38:13;;;;;;;35.25;9.95;;;12.50;99.90;;;;;;5035424;28;20033;-77
2022/03/30 12:40:41;;;;;;;33.60;8.98;;;12.60;99.90;;;;;;5018488;28;20473;-73
2022/03/30 12:43:09;;;;;;;31.65;10.13;;;12.60;99.90;;;;;;5035096;28;20029;-79
2022/03/30 12:45:53;;;;;;;31.58;8.55;;;12.50;99.90;;;;;;5035296;28;20080;-79
2022/03/30 12:48:28;;;;;;;25.27;7.85;;;12.50;99.90;;;;;;5035459;28;20045;-78
2022/03/30 12:50:57;;;;;;;33.42;8.52;;;12.50;99.90;;;;;;5035512;28;20405;-68
2022/03/30 12:53:32;;;;;;;25.25;8.70;;;12.50;99.90;;;;;;5035295;28;20128;-77
2022/03/30 12:56:11;;;;;;;27.30;8.93;;;12.50;99.90;;;;;;5035277;28;20045;-79